sensor_id;sensor_type;location;lat;lon;timestamp;temperature;humidity
13320;DHT22;59599;47.608;12.190;2022-07-21T04:10:24;23.50;99.90
13320;DHT22;59599;47.608;12.190;2022-07-21T04:12:50;23.40;99.90
13320;DHT22;59599;47.608;12.190;2022-07-21T04:17:43;23.10;99.90
13320;DHT22;59599;47.608;12.190;2022-07-21T04:20:09;23.10;99.90
13320;DHT22;59599;47.608;12.190;2022-07-21T04:22:36;23.00;99.90
13320;DHT22;59599;47.608;12.190;2022-07-21T04:25:03;23.00;99.90
13320;DHT22;59599;47.608;12.190;2022-07-21T04:27:29;23.20;99.90
13320;DHT22;59599;47.608;12.190;2022-07-21T04:29:55;23.40;99.90
13320;DHT22;59599;47.608;12.190;2022-07-21T04:32:21;23.60;99.90
13320;DHT22;59599;47.608;12.190;2022-07-21T04:42:05;23.40;99.90
13320;DHT22;59599;47.608;12.190;2022-07-21T04:44:30;23.40;99.90
13320;DHT22;59599;47.608;12.190;2022-07-21T04:46:56;23.40;99.90
13320;DHT22;59599;47.608;12.190;2022-07-21T04:49:22;23.40;99.90
13320;DHT22;59599;47.608;12.190;2022-07-21T04:54:13;23.60;99.90
13320;DHT22;59599;47.608;12.190;2022-07-21T04:56:40;23.80;99.90
13320;DHT22;59599;47.608;12.190;2022-07-21T04:59:06;23.80;99.90
13320;DHT22;59599;47.608;12.190;2022-07-21T05:01:32;23.90;99.90
13320;DHT22;59599;47.608;12.190;2022-07-21T05:03:57;23.90;99.90
13320;DHT22;59599;47.608;12.190;2022-07-21T05:06:23;23.80;99.90
13320;DHT22;59599;47.608;12.190;2022-07-21T05:08:48;23.90;99.90
13320;DHT22;59599;47.608;12.190;2022-07-21T05:11:14;23.90;99.90
13320;DHT22;59599;47.608;12.190;2022-07-21T05:18:32;23.90;99.90
13320;DHT22;59599;47.608;12.190;2022-07-21T05:20:58;23.90;99.90
13320;DHT22;59599;47.608;12.190;2022-07-21T05:23:23;23.90;99.90
13320;DHT22;59599;47.608;12.190;2022-07-21T05:25:49;23.90;99.90
13320;DHT22;59599;47.608;12.190;2022-07-21T05:47:42;24.30;99.90
13320;DHT22;59599;47.608;12.190;2022-07-21T05:50:08;24.20;99.90
13320;DHT22;59599;47.608;12.190;2022-07-21T05:55:00;24.30;99.90
13320;DHT22;59599;47.608;12.190;2022-07-21T05:57:26;24.30;99.90
13320;DHT22;59599;47.608;12.190;2022-07-21T05:59:52;24.40;99.90
13320;DHT22;59599;47.608;12.190;2022-07-21T06:16:54;25.10;99.90
13320;DHT22;59599;47.608;12.190;2022-07-21T06:24:12;25.10;99.90
13320;DHT22;59599;47.608;12.190;2022-07-21T06:26:37;25.20;99.90
13320;DHT22;59599;47.608;12.190;2022-07-21T06:31:31;25.20;99.90
13320;DHT22;59599;47.608;12.190;2022-07-21T06:36:23;25.20;99.90
13320;DHT22;59599;47.608;12.190;2022-07-21T06:46:06;25.40;99.90
13320;DHT22;59599;47.608;12.190;2022-07-21T06:48:32;25.40;99.90
13320;DHT22;59599;47.608;12.190;2022-07-21T06:50:57;25.50;99.90
13320;DHT22;59599;47.608;12.190;2022-07-21T06:53:24;25.50;99.90
13320;DHT22;59599;47.608;12.190;2022-07-21T06:55:50;25.50;99.90
13320;DHT22;59599;47.608;12.190;2022-07-21T06:58:22;25.50;99.90
13320;DHT22;59599;47.608;12.190;2022-07-21T07:00:48;25.60;99.90
13320;DHT22;59599;47.608;12.190;2022-07-21T07:03:14;25.50;99.90
13320;DHT22;59599;47.608;12.190;2022-07-21T07:08:06;25.60;99.90
13320;DHT22;59599;47.608;12.190;2022-07-21T07:10:32;25.60;99.90
13320;DHT22;59599;47.608;12.190;2022-07-21T07:12:58;25.70;99.90
13320;DHT22;59599;47.608;12.190;2022-07-21T07:15:24;25.70;99.90
13320;DHT22;59599;47.608;12.190;2022-07-21T07:17:50;25.90;99.90
13320;DHT22;59599;47.608;12.190;2022-07-21T07:20:17;25.80;99.90
13320;DHT22;59599;47.608;12.190;2022-07-21T07:22:42;25.90;99.90
13320;DHT22;59599;47.608;12.190;2022-07-21T07:25:08;25.90;99.90
13320;DHT22;59599;47.608;12.190;2022-07-21T07:27:34;26.00;99.90
13320;DHT22;59599;47.608;12.190;2022-07-21T07:32:25;26.00;99.90
13320;DHT22;59599;47.608;12.190;2022-07-21T07:34:51;26.00;99.90
13320;DHT22;59599;47.608;12.190;2022-07-21T07:37:16;26.10;99.90
13320;DHT22;59599;47.608;12.190;2022-07-21T07:49:30;25.90;99.90
13320;DHT22;59599;47.608;12.190;2022-07-21T07:51:56;25.80;99.90
13320;DHT22;59599;47.608;12.190;2022-07-21T07:54:22;25.80;99.90
13320;DHT22;59599;47.608;12.190;2022-07-21T07:56:48;25.60;99.90
13320;DHT22;59599;47.608;12.190;2022-07-21T07:59:14;25.60;99.90
13320;DHT22;59599;47.608;12.190;2022-07-21T08:04:06;25.60;99.90
13320;DHT22;59599;47.608;12.190;2022-07-21T08:06:31;25.50;99.90
13320;DHT22;59599;47.608;12.190;2022-07-21T08:08:57;25.50;99.90
13320;DHT22;59599;47.608;12.190;2022-07-21T08:18:42;25.20;99.90
13320;DHT22;59599;47.608;12.190;2022-07-21T08:23:34;25.20;99.90
13320;DHT22;59599;47.608;12.190;2022-07-21T08:30:52;25.10;99.90
13320;DHT22;59599;47.608;12.190;2022-07-21T08:38:11;25.20;99.90
13320;DHT22;59599;47.608;12.190;2022-07-21T08:40:42;25.20;99.90
13320;DHT22;59599;47.608;12.190;2022-07-21T08:45:35;25.20;99.90
13320;DHT22;59599;47.608;12.190;2022-07-21T08:48:01;25.20;99.90
13320;DHT22;59599;47.608;12.190;2022-07-21T08:50:30;25.20;99.90
13320;DHT22;59599;47.608;12.190;2022-07-21T09:05:08;25.40;99.90
13320;DHT22;59599;47.608;12.190;2022-07-21T09:07:53;25.40;99.90
13320;DHT22;59599;47.608;12.190;2022-07-21T09:10:25;25.40;99.90
13320;DHT22;59599;47.608;12.190;2022-07-21T09:12:54;25.40;99.90
13320;DHT22;59599;47.608;12.190;2022-07-21T09:15:22;25.40;99.90
13320;DHT22;59599;47.608;12.190;2022-07-21T09:18:13;25.40;99.90
13320;DHT22;59599;47.608;12.190;2022-07-21T09:20:46;25.50;99.90
13320;DHT22;59599;47.608;12.190;2022-07-21T09:23:14;25.50;99.90
13320;DHT22;59599;47.608;12.190;2022-07-21T09:25:46;25.50;99.90
13320;DHT22;59599;47.608;12.190;2022-07-21T09:31:08;25.40;99.90
13320;DHT22;59599;47.608;12.190;2022-07-21T09:33:45;25.30;99.90
13320;DHT22;59599;47.608;12.190;2022-07-21T09:36:20;25.40;99.90
13320;DHT22;59599;47.608;12.190;2022-07-21T09:38:53;25.60;99.90
13320;DHT22;59599;47.608;12.190;2022-07-21T09:41:24;25.70;99.90
13320;DHT22;59599;47.608;12.190;2022-07-21T09:43:55;25.80;99.90
13320;DHT22;59599;47.608;12.190;2022-07-21T09:46:26;25.90;99.90
13320;DHT22;59599;47.608;12.190;2022-07-21T09:48:55;26.10;99.90
13320;DHT22;59599;47.608;12.190;2022-07-21T09:51:40;26.30;99.90
13320;DHT22;59599;47.608;12.190;2022-07-21T09:54:12;26.60;99.90
13320;DHT22;59599;47.608;12.190;2022-07-21T09:56:44;26.70;99.90
13320;DHT22;59599;47.608;12.190;2022-07-21T09:59:11;26.90;99.90
13320;DHT22;59599;47.608;12.190;2022-07-21T10:01:37;26.90;99.90
13320;DHT22;59599;47.608;12.190;2022-07-21T10:04:04;26.80;99.90
13320;DHT22;59599;47.608;12.190;2022-07-21T10:06:35;26.90;99.90
13320;DHT22;59599;47.608;12.190;2022-07-21T10:09:04;27.00;99.90
13320;DHT22;59599;47.608;12.190;2022-07-21T10:13:56;26.90;99.90
13320;DHT22;59599;47.608;12.190;2022-07-21T10:16:22;27.00;99.90
13320;DHT22;59599;47.608;12.190;2022-07-21T10:19:13;27.00;99.90
13320;DHT22;59599;47.608;12.190;2022-07-21T10:22:07;27.00;99.90
13320;DHT22;59599;47.608;12.190;2022-07-21T10:24:35;27.00;99.90
13320;DHT22;59599;47.608;12.190;2022-07-21T10:27:09;27.00;99.90
13320;DHT22;59599;47.608;12.190;2022-07-21T10:32:18;27.20;99.90
13320;DHT22;59599;47.608;12.190;2022-07-21T10:34:44;27.20;99.90
13320;DHT22;59599;47.608;12.190;2022-07-21T10:37:11;27.50;99.90
13320;DHT22;59599;47.608;12.190;2022-07-21T10:39:56;27.60;99.90
13320;DHT22;59599;47.608;12.190;2022-07-21T10:47:20;27.50;99.90
13320;DHT22;59599;47.608;12.190;2022-07-21T11:00:26;26.60;99.90
13320;DHT22;59599;47.608;12.190;2022-07-21T11:03:00;26.40;99.90
13320;DHT22;59599;47.608;12.190;2022-07-21T11:05:29;26.20;99.90
13320;DHT22;59599;47.608;12.190;2022-07-21T11:08:19;26.10;99.90
13320;DHT22;59599;47.608;12.190;2022-07-21T11:10:51;26.00;99.90
13320;DHT22;59599;47.608;12.190;2022-07-21T11:13:20;25.90;99.90
13320;DHT22;59599;47.608;12.190;2022-07-21T11:15:53;25.80;99.90
13320;DHT22;59599;47.608;12.190;2022-07-21T11:18:25;25.80;99.90
13320;DHT22;59599;47.608;12.190;2022-07-21T11:21:23;25.70;99.90
13320;DHT22;59599;47.608;12.190;2022-07-21T11:23:49;25.60;99.90
13320;DHT22;59599;47.608;12.190;2022-07-21T11:26:24;25.60;99.90
13320;DHT22;59599;47.608;12.190;2022-07-21T11:29:05;25.60;99.90
13320;DHT22;59599;47.608;12.190;2022-07-21T11:31:31;25.60;99.90
13320;DHT22;59599;47.608;12.190;2022-07-21T11:33:56;25.60;99.90
13320;DHT22;59599;47.608;12.190;2022-07-21T11:36:27;25.60;99.90
13320;DHT22;59599;47.608;12.190;2022-07-21T11:39:13;25.50;99.90
13320;DHT22;59599;47.608;12.190;2022-07-21T11:41:41;25.50;99.90
13320;DHT22;59599;47.608;12.190;2022-07-21T11:44:09;25.40;99.90
13320;DHT22;59599;47.608;12.190;2022-07-21T11:46:52;25.30;99.90
13320;DHT22;59599;47.608;12.190;2022-07-21T11:49:18;25.20;99.90
13320;DHT22;59599;47.608;12.190;2022-07-21T11:51:56;25.20;99.90
13320;DHT22;59599;47.608;12.190;2022-07-21T11:54:25;25.20;99.90
13320;DHT22;59599;47.608;12.190;2022-07-21T11:56:51;25.10;99.90
13320;DHT22;59599;47.608;12.190;2022-07-21T11:59:17;25.00;99.90
13320;DHT22;59599;47.608;12.190;2022-07-21T12:02:11;24.90;99.90
13320;DHT22;59599;47.608;12.190;2022-07-21T12:07:37;24.80;99.90
13320;DHT22;59599;47.608;12.190;2022-07-21T12:17:51;24.40;99.90
13320;DHT22;59599;47.608;12.190;2022-07-21T12:20:31;24.40;99.90
13320;DHT22;59599;47.608;12.190;2022-07-21T12:23:00;24.40;99.90
13320;DHT22;59599;47.608;12.190;2022-07-21T12:25:38;24.10;99.90
13320;DHT22;59599;47.608;12.190;2022-07-21T12:28:05;24.30;99.90
13320;DHT22;59599;47.608;12.190;2022-07-21T12:30:38;24.30;99.90
13320;DHT22;59599;47.608;12.190;2022-07-21T12:33:29;24.30;99.90
13320;DHT22;59599;47.608;12.190;2022-07-21T12:36:03;24.20;99.90
13320;DHT22;59599;47.608;12.190;2022-07-21T12:38:43;24.30;99.90
13320;DHT22;59599;47.608;12.190;2022-07-21T12:41:15;24.20;99.90
13320;DHT22;59599;47.608;12.190;2022-07-21T12:43:41;24.20;99.90
13320;DHT22;59599;47.608;12.190;2022-07-21T12:46:12;24.20;99.90
13320;DHT22;59599;47.608;12.190;2022-07-21T12:48:40;24.20;99.90
13320;DHT22;59599;47.608;12.190;2022-07-21T12:51:22;24.10;99.90
13320;DHT22;59599;47.608;12.190;2022-07-21T12:53:51;24.10;99.90
13320;DHT22;59599;47.608;12.190;2022-07-21T12:56:26;24.00;99.90
13320;DHT22;59599;47.608;12.190;2022-07-21T12:58:53;24.10;99.90
13320;DHT22;59599;47.608;12.190;2022-07-21T13:01:20;24.10;99.90
13320;DHT22;59599;47.608;12.190;2022-07-21T13:06:12;24.00;99.90
13320;DHT22;59599;47.608;12.190;2022-07-21T13:08:43;24.10;99.90
13320;DHT22;59599;47.608;12.190;2022-07-21T13:11:10;24.00;99.90
13320;DHT22;59599;47.608;12.190;2022-07-21T13:13:37;23.90;99.90
13320;DHT22;59599;47.608;12.190;2022-07-21T13:16:04;23.90;99.90
13320;DHT22;59599;47.608;12.190;2022-07-21T13:18:29;23.90;99.90
13320;DHT22;59599;47.608;12.190;2022-07-21T13:20:55;23.80;99.90
13320;DHT22;59599;47.608;12.190;2022-07-21T13:23:21;23.80;99.90
13320;DHT22;59599;47.608;12.190;2022-07-21T13:25:48;23.90;99.90
13320;DHT22;59599;47.608;12.190;2022-07-21T13:30:40;23.80;99.90
13320;DHT22;59599;47.608;12.190;2022-07-21T13:33:06;23.70;99.90
13320;DHT22;59599;47.608;12.190;2022-07-21T13:35:32;23.80;99.90
13320;DHT22;59599;47.608;12.190;2022-07-21T13:37:58;23.80;99.90
13320;DHT22;59599;47.608;12.190;2022-07-21T13:40:26;23.70;99.90
13320;DHT22;59599;47.608;12.190;2022-07-21T13:42:52;23.70;99.90
13320;DHT22;59599;47.608;12.190;2022-07-21T13:47:43;23.50;99.90
13320;DHT22;59599;47.608;12.190;2022-07-21T13:55:02;23.40;99.90
13320;DHT22;59599;47.608;12.190;2022-07-21T14:04:45;23.30;99.90
13320;DHT22;59599;47.608;12.190;2022-07-21T14:07:11;23.20;99.90
13320;DHT22;59599;47.608;12.190;2022-07-21T14:09:42;23.20;99.90
13320;DHT22;59599;47.608;12.190;2022-07-21T14:12:08;23.20;99.90
13320;DHT22;59599;47.608;12.190;2022-07-21T14:14:38;23.30;99.90
13320;DHT22;59599;47.608;12.190;2022-07-21T14:17:03;23.30;99.90
13320;DHT22;59599;47.608;12.190;2022-07-21T14:19:29;23.20;99.90
13320;DHT22;59599;47.608;12.190;2022-07-21T14:24:21;23.30;99.90
13320;DHT22;59599;47.608;12.190;2022-07-21T14:27:05;23.20;99.90
13320;DHT22;59599;47.608;12.190;2022-07-21T14:29:31;23.30;99.90
13320;DHT22;59599;47.608;12.190;2022-07-21T14:34:23;23.30;99.90
13320;DHT22;59599;47.608;12.190;2022-07-21T14:36:49;23.40;99.90
13320;DHT22;59599;47.608;12.190;2022-07-21T14:39:17;23.50;99.90
13320;DHT22;59599;47.608;12.190;2022-07-21T14:44:10;23.40;99.90
13320;DHT22;59599;47.608;12.190;2022-07-21T14:46:35;23.30;99.90
13320;DHT22;59599;47.608;12.190;2022-07-21T14:56:19;23.50;99.90
13320;DHT22;59599;47.608;12.190;2022-07-21T15:01:10;23.40;99.90
13320;DHT22;59599;47.608;12.190;2022-07-21T15:03:36;23.40;99.90
13320;DHT22;59599;47.608;12.190;2022-07-21T15:08:30;23.40;99.90
13320;DHT22;59599;47.608;12.190;2022-07-21T15:13:21;23.30;99.90
13320;DHT22;59599;47.608;12.190;2022-07-21T15:15:47;23.40;99.90
13320;DHT22;59599;47.608;12.190;2022-07-21T15:18:12;23.50;99.90
13320;DHT22;59599;47.608;12.190;2022-07-21T15:20:38;23.50;99.90
13320;DHT22;59599;47.608;12.190;2022-07-21T15:23:04;23.50;99.90
13320;DHT22;59599;47.608;12.190;2022-07-21T15:30:22;23.40;99.90
13320;DHT22;59599;47.608;12.190;2022-07-21T15:32:47;23.50;99.90
13320;DHT22;59599;47.608;12.190;2022-07-21T15:37:39;23.60;99.90
13320;DHT22;59599;47.608;12.190;2022-07-21T15:40:06;23.60;99.90
13320;DHT22;59599;47.608;12.190;2022-07-21T15:42:32;23.50;99.90
13320;DHT22;59599;47.608;12.190;2022-07-21T15:45:01;23.40;99.90
13320;DHT22;59599;47.608;12.190;2022-07-21T15:57:11;23.60;99.90
13320;DHT22;59599;47.608;12.190;2022-07-21T15:59:36;23.70;99.90
13320;DHT22;59599;47.608;12.190;2022-07-21T16:07:00;23.30;99.90
13320;DHT22;59599;47.608;12.190;2022-07-21T16:11:52;23.20;99.90
13320;DHT22;59599;47.608;12.190;2022-07-21T16:26:27;23.30;99.90
13320;DHT22;59599;47.608;12.190;2022-07-21T16:28:53;23.30;99.90
13320;DHT22;59599;47.608;12.190;2022-07-21T16:33:47;23.20;99.90
13320;DHT22;59599;47.608;12.190;2022-07-21T16:36:13;23.00;99.90
13320;DHT22;59599;47.608;12.190;2022-07-21T16:38:39;23.10;99.90
13320;DHT22;59599;47.608;12.190;2022-07-21T16:41:05;23.00;99.90
13320;DHT22;59599;47.608;12.190;2022-07-21T16:43:30;23.10;99.90
13320;DHT22;59599;47.608;12.190;2022-07-21T16:48:22;23.20;99.90
13320;DHT22;59599;47.608;12.190;2022-07-21T16:53:14;23.10;99.90
13320;DHT22;59599;47.608;12.190;2022-07-21T16:58:05;23.10;99.90
13320;DHT22;59599;47.608;12.190;2022-07-21T17:15:08;23.30;99.90
13320;DHT22;59599;47.608;12.190;2022-07-21T17:17:34;23.30;99.90
13320;DHT22;59599;47.608;12.190;2022-07-21T17:20:00;23.30;99.90
13320;DHT22;59599;47.608;12.190;2022-07-21T17:27:18;23.30;99.90
13320;DHT22;59599;47.608;12.190;2022-07-21T17:32:09;23.30;99.90
13320;DHT22;59599;47.608;12.190;2022-07-21T17:34:35;23.40;99.90
13320;DHT22;59599;47.608;12.190;2022-07-21T17:37:01;23.40;99.90
13320;DHT22;59599;47.608;12.190;2022-07-21T17:39:28;23.20;99.90
13320;DHT22;59599;47.608;12.190;2022-07-21T17:41:53;23.20;99.90
13320;DHT22;59599;47.608;12.190;2022-07-21T17:44:19;23.10;99.90
13320;DHT22;59599;47.608;12.190;2022-07-21T17:49:11;22.90;99.90
13320;DHT22;59599;47.608;12.190;2022-07-21T17:58:54;22.60;99.90
13320;DHT22;59599;47.608;12.190;2022-07-21T18:01:22;22.60;99.90
13320;DHT22;59599;47.608;12.190;2022-07-21T18:03:49;22.60;99.90
13320;DHT22;59599;47.608;12.190;2022-07-21T18:06:16;22.40;99.90
13320;DHT22;59599;47.608;12.190;2022-07-21T18:08:44;22.30;99.90
13320;DHT22;59599;47.608;12.190;2022-07-21T18:11:10;22.40;99.90
13320;DHT22;59599;47.608;12.190;2022-07-21T18:13:36;22.20;99.90
13320;DHT22;59599;47.608;12.190;2022-07-21T18:16:02;22.20;99.90
13320;DHT22;59599;47.608;12.190;2022-07-21T18:18:28;22.20;99.90
13320;DHT22;59599;47.608;12.190;2022-07-21T18:28:12;22.40;99.90
13320;DHT22;59599;47.608;12.190;2022-07-21T18:30:43;22.30;99.90
13320;DHT22;59599;47.608;12.190;2022-07-21T18:40:28;22.40;99.90
13320;DHT22;59599;47.608;12.190;2022-07-21T18:52:38;22.40;99.90
13320;DHT22;59599;47.608;12.190;2022-07-21T18:55:07;22.50;99.90
13320;DHT22;59599;47.608;12.190;2022-07-21T18:57:33;22.50;99.90
13320;DHT22;59599;47.608;12.190;2022-07-21T18:59:59;22.50;99.90
13320;DHT22;59599;47.608;12.190;2022-07-21T19:02:26;22.50;99.90
13320;DHT22;59599;47.608;12.190;2022-07-21T19:04:52;22.50;99.90
13320;DHT22;59599;47.608;12.190;2022-07-21T19:09:44;22.50;99.90
13320;DHT22;59599;47.608;12.190;2022-07-21T19:12:10;22.40;99.90
13320;DHT22;59599;47.608;12.190;2022-07-21T19:19:29;22.30;99.90
13320;DHT22;59599;47.608;12.190;2022-07-21T19:26:47;22.40;99.90
13320;DHT22;59599;47.608;12.190;2022-07-21T19:31:38;22.30;99.90
13320;DHT22;59599;47.608;12.190;2022-07-21T19:34:04;22.20;99.90
13320;DHT22;59599;47.608;12.190;2022-07-21T19:43:48;22.40;99.90
13320;DHT22;59599;47.608;12.190;2022-07-21T19:48:40;22.50;99.90
13320;DHT22;59599;47.608;12.190;2022-07-21T19:51:07;22.40;99.90
13320;DHT22;59599;47.608;12.190;2022-07-21T19:53:32;22.40;99.90
13320;DHT22;59599;47.608;12.190;2022-07-21T19:56:01;22.40;99.90
13320;DHT22;59599;47.608;12.190;2022-07-21T19:58:27;22.40;99.90
13320;DHT22;59599;47.608;12.190;2022-07-21T20:00:53;22.20;99.90
13320;DHT22;59599;47.608;12.190;2022-07-21T20:03:18;22.20;99.90
13320;DHT22;59599;47.608;12.190;2022-07-21T20:15:30;21.90;99.90
13320;DHT22;59599;47.608;12.190;2022-07-21T20:17:56;21.80;99.90
13320;DHT22;59599;47.608;12.190;2022-07-21T20:20:22;21.90;99.90
13320;DHT22;59599;47.608;12.190;2022-07-21T20:22:48;22.00;99.90
13320;DHT22;59599;47.608;12.190;2022-07-21T20:25:14;21.90;99.90
13320;DHT22;59599;47.608;12.190;2022-07-21T20:30:10;22.10;99.90
13320;DHT22;59599;47.608;12.190;2022-07-21T20:32:36;22.20;99.90
13320;DHT22;59599;47.608;12.190;2022-07-21T20:35:02;22.20;99.90
13320;DHT22;59599;47.608;12.190;2022-07-21T20:37:27;22.10;99.90
13320;DHT22;59599;47.608;12.190;2022-07-21T20:42:19;22.10;99.90
13320;DHT22;59599;47.608;12.190;2022-07-21T20:44:44;22.10;99.90
13320;DHT22;59599;47.608;12.190;2022-07-21T20:49:36;22.10;99.90
13320;DHT22;59599;47.608;12.190;2022-07-21T20:56:53;22.10;99.90
13320;DHT22;59599;47.608;12.190;2022-07-21T20:59:19;22.10;99.90
